Tiempo atmosférico en la estación meteorológica de Tresviso, Cantabria (912 m.)



Fecha
DESCASC
Temp. máxima en grados centígrados (hora)
DESCASC
Temp. mínima en grados centígrados (hora)
DESCASC
Temp. media en grados centígrados
DESCASC
Racha de viento máxima en m/sg (hora)
DESCASC
Velocidad máxima media en intervalos de 10 minutos(hora)
DESCASC
Precipitaciones diarias en mm
DESCASC
Precipitaciones de 00:00 a 06:00 en mm
DESCASC
Precipitaciones de 06:00 a 12:00 en mm
DESCASC
Precipitaciones de 12:00 a 18:00 en mm
DESCASC
Precipitaciones de 18:00 a 24:00 en mm
DESCASC
10-07-2020 14.8 (00:00) 11 (23:50) 12.9 3.61 (21:30) 2.22 (21:30) 4.8 0.2 1 1 2.6
09-07-2020 21.4 (13:00) 14.3 (04:30) 17.8 6.11 (21:10) 3.33 (21:10) 0 0 0 0 0
08-07-2020 20.6 (15:00) 13 (04:50) 16.8 5 (15:30) 2.5 (20:30) 0.4 0 0.2 0 0.2
07-07-2020 20.4 (16:10) 9.8 (06:50) 15.1 4.44 (00:20) 2.5 (00:20) 1 1 0 0 0
06-07-2020 16.8 (10:30) 11.6 (00:00) 14.2 8.89 (12:10) 5.28 (14:20) 0.8 0 0.4 0 0.4
05-07-2020 23.8 (13:50) 14.9 (00:00) 19.3 3.89 (15:50) 2.22 (17:20) 0 0 0 0 0
04-07-2020 22.9 (16:10) 10 (00:00) 16.4 3.61 (15:20) 1.94 (16:30) 0 0 0 0 0
03-07-2020 15.8 (15:20) 8.6 (07:00) 12.2 5.28 (17:10) 3.33 (00:40) 0.2 0.2 0 0 0
02-07-2020 12.2 (16:10) 9.2 (00:00) 10.7 6.94 (21:00) 4.44 (18:00) 6.2 2.8 2.8 0.2 0.4
01-07-2020 16.5 (00:00) 11.8 (00:00) 14.2 5 (01:30) 3.33 (02:00) 4.4 0.2 0 2.2 2
30-06-2020 23 (17:00) 12.4 (00:00) 17.7 6.11 (23:30) 3.06 (23:30) 0 0 0 0 0
29-06-2020 16.6 (16:10) 11.9 (00:00) 14.3 6.39 (23:50) 4.72 (23:50) 3.2 2.2 0.8 0.2 0
28-06-2020 21.1 (14:40) 12.2 (00:00) 16.7 5 (08:20) 2.22 (16:00) 1.2 0.6 0 0 0.6
27-06-2020 20.8 (13:40) 13.3 (00:00) 17 6.94 (14:40) 4.44 (14:40) 0.2 0 0 0 0.2
26-06-2020 17.2 (18:50) 11.7 (00:00) 14.5 3.61 (15:20) 2.22 (15:30) 1.8 0.8 0.8 0.2 0
25-06-2020 21.6 (01:10) 12.7 (00:00) 17.2 11.11 (09:10) 5.83 (18:20) 5.8 0.8 0 2.4 2.6
24-06-2020 26.7 (13:20) 20.4 (00:00) 23.6 11.67 (20:50) 7.5 (20:50) 0 0 0 0 0
23-06-2020 28.3 (14:50) 17.6 (00:00) 22.9 3.33 (15:30) 2.22 (03:50) 0 0 0 0 0
22-06-2020 23.7 (16:40) 12.2 (00:00) 18 5 (15:20) 2.5 (14:30) 0 0 0 0 0
21-06-2020 21.2 (14:30) 13 (00:00) 17.1 7.22 (16:00) 4.17 (15:00) 0 0 0 0 0
20-06-2020 18.8 (18:40) 10.9 (00:00) 14.8 4.72 (14:20) 2.5 (14:20) 0 0 0 0 0
19-06-2020 13 (13:50) 9.1 (00:00) 11.1 2.78 (14:00) 1.67 (08:40) 0 0 0 0 0
18-06-2020 13.1 (12:10) 8 (00:00) 10.6 5.56 (16:50) 3.06 (17:00) 0.8 0.6 0 0 0.2
17-06-2020 14.5 (17:10) 8.5 (00:00) 11.5 9.72 (00:10) 5.56 (00:10) 7 1 0.2 0.4 5.4
16-06-2020 13 (17:00) 9 (00:00) 11 11.11 (21:10) 6.11 (21:10) 7.4 1 0.6 2 3.8
15-06-2020 15.5 (14:40) 9.3 (00:00) 12.4 5.56 (13:40) 3.06 (12:50) 5.6 0 0 2 3.6

Gráficas

Temp. máximas Temp. mínimas Temp. medias Precipitaciones Rachas de viento máximas Velocidades máximas media en intervalos de 10 minutos

Datos horarios

Fecha y hora oficial Temperatura (ºC) Velocidad del viento (km/h) Dirección del viento Racha (km/h) Dirección de racha Precipitación (mm) Presión (hPa) Tendencia (hPa) Humedad (%)
2020-07-14 23:00:00 11.1 7 Oeste 16 Oeste 0 -- -- 67
2020-07-14 22:00:00 11.3 0 Calma 8 Sur 0 -- -- 92
2020-07-14 21:00:00 12.4 2 Sudeste 6 Sudeste 0 -- -- 92
2020-07-14 20:00:00 13.4 2 Nordeste 10 Nordeste 0 -- -- 92
2020-07-14 19:00:00 13.7 4 Nordeste 9 Este 0 -- -- 91
2020-07-14 18:00:00 14.3 2 Sudoeste 11 Este 0 -- -- 90
2020-07-14 17:00:00 14.8 5 Este 19 Nordeste 0 -- -- 88
2020-07-14 16:00:00 14.7 12 Nordeste 29 Nordeste 0 -- -- 89
2020-07-14 15:00:00 17.5 12 Nordeste 24 Nordeste 0 -- -- 76
2020-07-14 14:00:00 17.5 9 Nordeste 20 Este 0 -- -- 73
2020-07-14 13:00:00 17.4 7 Este 17 Nordeste 0 -- -- 72
2020-07-14 12:00:00 16 4 Este 12 Sudeste 0 -- -- 79
2020-07-14 11:00:00 15 5 Sur 13 Sur 0 -- -- 78
2020-07-14 10:00:00 14.9 5 Nordeste 9 Nordeste 0 -- -- 78
2020-07-14 09:00:00 12.7 3 Sur 8 Sur 0 -- -- 77
2020-07-14 08:00:00 12.1 4 Nordeste 6 Nordeste 0 -- -- 75
2020-07-14 07:00:00 11 0 Calma 8 Norte 0 -- -- 76
2020-07-14 06:00:00 11 4 Sur 8 Sur 0 -- -- 79
2020-07-14 05:00:00 11.9 2 Sudeste 6 Sudeste 0 -- -- 72
2020-07-14 04:00:00 12.3 0 Calma 4 Sudeste 0 -- -- 65
2020-07-14 03:00:00 12.5 2 Nordeste 5 Nordeste 0 -- -- 64
2020-07-14 02:00:00 12.6 3 Sur 4 Norte 0 -- -- 61
2020-07-14 01:00:00 12.7 0 Calma 6 Sudoeste 0 -- -- 65
2020-07-14 00:00:00 12.9 6 Sudoeste 8 Oeste 0 -- -- 65
2020-07-13 23:00:00 13.2 2 Sudoeste 6 Norte 0 -- -- 68
2020-07-13 22:00:00 14 0 Calma 7 Oeste 0 -- -- 64
2020-07-13 21:00:00 15.8 5 Oeste 13 Norte 0 -- -- 60
2020-07-13 20:00:00 17.6 6 Norte 28 Norte 0 -- -- 58
2020-07-13 19:00:00 17 16 Nordeste 30 Nordeste 0 -- -- 62
2020-07-13 18:00:00 17.7 18 Nordeste 31 Nordeste 0 -- -- 59
2020-07-13 17:00:00 18.1 13 Norte 28 Nordeste 0 -- -- 54
2020-07-13 16:00:00 18.6 13 Norte 24 Nordeste 0 -- -- 57
2020-07-13 15:00:00 19 8 Nordeste 21 Nordeste 0 -- -- 59
2020-07-13 14:00:00 18.9 10 Nordeste 27 Nordeste 0 -- -- 58
2020-07-13 13:00:00 19.1 8 Nordeste 18 Nordeste 0 -- -- 62
2020-07-13 12:00:00 18.6 12 Nordeste 18 Nordeste 0 -- -- 55
2020-07-13 11:00:00 18.3 6 Nordeste 12 Nordeste 0 -- -- 53
2020-07-13 10:00:00 17.5 4 Nordeste 8 Nordeste 0 -- -- 66
2020-07-13 09:00:00 15.4 3 Nordeste 6 Norte 0 -- -- 77
2020-07-13 08:00:00 14 4 Norte 8 Norte 0 -- -- 64
2020-07-13 07:00:00 13.6 7 Norte 10 Noroeste 0 -- -- 66
2020-07-13 06:00:00 13.2 5 Norte 7 Norte 0 -- -- 73
2020-07-13 05:00:00 12.9 3 Sudoeste 6 Norte 0 -- -- 92
2020-07-13 04:00:00 12.3 4 Sudoeste 6 Sur 0 -- -- 93
2020-07-13 03:00:00 12.3 5 Sudoeste 8 Sudoeste 0.2 -- -- 94
2020-07-13 02:00:00 13 7 Sudoeste 9 Sur 0 -- -- 99
2020-07-13 01:00:00 13.9 2 Sur 4 Sur 0 -- -- 100
2020-07-13 00:00:00 14 3 Sudoeste 7 Norte 0 -- -- 100
2020-07-12 23:00:00 14.1 0 Calma 5 Sudeste 0 -- -- 100
2020-07-12 22:00:00 14.1 0 Calma 8 Sudoeste 0 -- -- 100
2020-07-12 21:00:00 14.3 2 Sudoeste 8 Nordeste 0.2 -- -- 99
2020-07-12 20:00:00 14.3 5 Norte 17 Nordeste 0.2 -- -- 99
2020-07-12 19:00:00 14.6 7 Sur 26 Nordeste 0 -- -- 99
2020-07-12 18:00:00 15.3 12 Nordeste 24 Nordeste 0 -- -- 97
2020-07-12 17:00:00 18.1 7 Nordeste 18 Nordeste 0 -- -- 90
2020-07-12 16:00:00 23.1 7 Sudeste 14 Sur 0 -- -- 72
2020-07-12 15:00:00 23.1 6 Sudeste 12 Sudeste 0 -- -- 78
2020-07-12 14:00:00 21 4 Nordeste 11 Este 0 -- -- 82
2020-07-12 13:00:00 20.6 6 Sudeste 11 Sudeste 0 -- -- 77
2020-07-12 12:00:00 20.1 7 Sur 16 Sudoeste 0 -- -- 82
2020-07-12 11:00:00 16.3 7 Sudoeste 12 Sudoeste 0 -- -- 86
2020-07-12 10:00:00 15 4 Sudoeste 10 Sudoeste 0 -- -- 90
2020-07-12 09:00:00 14.2 4 Sudeste 17 Sur 0.6 -- -- 97
2020-07-12 08:00:00 15.1 5 Norte 25 Oeste 0.4 -- -- 88
2020-07-12 07:00:00 13.5 10 Nordeste 23 Norte 0.4 -- -- 98
2020-07-12 06:00:00 14.6 10 Norte 31 Norte 1.2 -- -- 94
2020-07-12 05:00:00 13.5 7 Norte 22 Nordeste 0 -- -- 97
2020-07-12 04:00:00 13 5 Sudeste 12 Norte 0 -- -- 98
2020-07-12 03:00:00 12.7 6 Norte 12 Nordeste 0 -- -- 100
2020-07-12 02:00:00 12.7 9 Nordeste 17 Nordeste 0 -- -- 100
2020-07-12 01:00:00 12.9 8 Nordeste 16 Nordeste 0 -- -- 100
2020-07-12 00:00:00 13 9 Nordeste 14 Nordeste 0 -- -- 99
2020-07-11 23:00:00 13.3 3 Nordeste 10 Nordeste 0 -- -- 99
2020-07-11 22:00:00 13.4 5 Nordeste 12 Nordeste 0 -- -- 97
2020-07-11 21:00:00 13.7 4 Nordeste 9 Nordeste 0 -- -- 96
2020-07-11 20:00:00 14.2 2 Sudeste 10 Nordeste 0 -- -- 95
2020-07-11 19:00:00 14.5 5 Nordeste 12 Nordeste 0 -- -- 94
2020-07-11 18:00:00 15.5 5 Nordeste 14 Nordeste 0 -- -- 90
2020-07-11 17:00:00 15.9 5 Nordeste 16 Nordeste 0 -- -- 87
2020-07-11 16:00:00 17 7 Nordeste 20 Nordeste 0 -- -- 82
2020-07-11 15:00:00 16.7 5 Este 21 Este 0 -- -- 81
2020-07-11 14:00:00 17 5 Nordeste 19 Nordeste 0 -- -- 78
2020-07-11 13:00:00 15.4 6 Nordeste 23 Nordeste 0 -- -- 81
2020-07-11 12:00:00 15.3 15 Nordeste 23 Este 0 -- -- 82
2020-07-11 11:00:00 13.3 12 Nordeste 21 Nordeste 0 -- -- 90
2020-07-11 10:00:00 12.5 13 Nordeste 23 Nordeste 0 -- -- 92
2020-07-11 09:00:00 12.4 11 Nordeste 18 Este 0 -- -- 96
2020-07-11 08:00:00 10.8 8 Nordeste 16 Nordeste 0 -- -- 99
2020-07-11 07:00:00 10.8 8 Nordeste 15 Nordeste 0 -- -- 99
2020-07-11 06:00:00 10.8 9 Nordeste 14 Nordeste 0 -- -- 100
2020-07-11 05:00:00 10.7 6 Norte 10 Nordeste 0 -- -- 100
2020-07-11 04:00:00 11 6 Nordeste 11 Nordeste 0 -- -- 100
2020-07-11 03:00:00 11.2 8 Nordeste 13 Este 0.2 -- -- 100
2020-07-11 02:00:00 11.4 6 Nordeste 9 Este 0 -- -- 100
2020-07-11 01:00:00 11.3 0 Calma 4 Sudoeste 0 -- -- 100
2020-07-11 00:00:00 11.1 0 Calma 6 Nordeste 0.2 -- -- 100
2020-07-10 23:00:00 11.3 3 Sudeste 12 Nordeste 0.2 -- -- 100
2020-07-10 22:00:00 11.6 4 Sudeste 13 Norte 0.2 -- -- 100
2020-07-10 21:00:00 12.5 2 Norte 6 Nordeste 0.8 -- -- 99
2020-07-10 20:00:00 13.2 3 Sudeste 6 Sur 0.6 -- -- 98
2020-07-10 19:00:00 14.1 2 Este 7 Sudeste 0.6 -- -- 98
2020-07-10 18:00:00 14.2 3 Sudeste 10 Sur 0.2 -- -- 98
2020-07-10 17:00:00 14.4 4 Sudeste 8 Sudeste 0.6 -- -- 98
2020-07-10 16:00:00 14.2 5 Sudeste 9 Sudeste 0 -- -- 99
2020-07-10 15:00:00 14.1 5 Sur 9 Sudoeste 0.2 -- -- 99
2020-07-10 14:00:00 14 3 Sur 8 Nordeste 0 -- -- 98
2020-07-10 13:00:00 14.5 3 Nordeste 7 Este 0 -- -- 97
2020-07-10 12:00:00 14.1 3 Nordeste 8 Sur 0 -- -- 99
2020-07-10 11:00:00 13.7 5 Sur 8 Sur 0 -- -- 100
2020-07-10 10:00:00 13.6 2 Sur 7 Sur 0.2 -- -- 100
2020-07-10 09:00:00 13.3 4 Sur 5 Sur 0.4 -- -- 100
2020-07-10 08:00:00 13.2 3 Sur 6 Sur 0.2 -- -- 100
2020-07-10 07:00:00 13.5 2 Sur 5 Sur 0.2 -- -- 100
2020-07-10 06:00:00 13.6 5 Sur 7 Noroeste 0 -- -- 100
2020-07-10 05:00:00 14 4 Sur 6 Sur 0 -- -- 99
2020-07-10 04:00:00 14.3 3 Norte 5 Sur 0 -- -- 99
2020-07-10 03:00:00 14.4 4 Noroeste 6 Nordeste 0 -- -- 99
2020-07-10 02:00:00 14.7 2 Oeste 5 Noroeste 0.2 -- -- 99
2020-07-10 01:00:00 14.6 2 Sudoeste 8 Sudeste 0 -- -- 98
2020-07-10 00:00:00 14.8 6 Sudoeste 9 Oeste 0 -- -- 96
2020-07-09 23:00:00 15.3 5 Sur 12 Oeste 0 -- -- 96
2020-07-09 22:00:00 14.6 6 Sudoeste 22 Norte 0 -- -- 97
2020-07-09 21:00:00 14.6 4 Este 10 Norte 0 -- -- 96
2020-07-09 20:00:00 15.6 3 Sur 9 Norte 0 -- -- 94
2020-07-09 19:00:00 16.5 3 Este 8 Este 0 -- -- 92
2020-07-09 18:00:00 17.8 3 Sudeste 9 Sur 0 -- -- 87
2020-07-09 17:00:00 18.7 4 Sudeste 12 Sur 0 -- -- 88
2020-07-09 16:00:00 19.3 5 Sur 12 Nordeste 0 -- -- 86
2020-07-09 15:00:00 20.4 4 Nordeste 10 Oeste 0 -- -- 83
2020-07-09 14:00:00 21.3 5 Sudeste 12 Sudeste 0 -- -- 75
2020-07-09 13:00:00 21.4 5 Sudeste 12 Nordeste 0 -- -- 78
2020-07-09 12:00:00 20.1 4 Nordeste 10 Nordeste 0 -- -- 82
2020-07-09 11:00:00 19.3 5 Este 16 Nordeste 0 -- -- 77
2020-07-09 10:00:00 17.8 5 Nordeste 9 Nordeste 0 -- -- 78
2020-07-09 09:00:00 15.5 3 Oeste 7 Oeste 0 -- -- 93
2020-07-09 08:00:00 14.6 3 Oeste 6 Oeste 0 -- -- 99
2020-07-09 07:00:00 14.4 4 Sudoeste 6 Oeste 0 -- -- 100
2020-07-09 06:00:00 14.4 0 Calma 9 Norte 0 -- -- 100
2020-07-09 05:00:00 14.4 6 Nordeste 8 Nordeste 0 -- -- 99
2020-07-09 04:00:00 14.6 7 Sudoeste 12 Sudoeste 0 -- -- 100
2020-07-09 03:00:00 14.6 4 Oeste 8 Oeste 0 -- -- 100
2020-07-09 02:00:00 14.4 6 Sudoeste 10 Sudoeste 0 -- -- 100
2020-07-09 01:00:00 15.2 4 Sur 12 Norte 0 -- -- 99
2020-07-09 00:00:00 15.3 4 Sudoeste 13 Nordeste 0 -- -- 99
2020-07-08 23:00:00 15.1 2 Sudeste 8 Sudoeste 0.2 -- -- 99
2020-07-08 22:00:00 15.1 2 Sudoeste 8 Sudoeste 0 -- -- 99
2020-07-08 21:00:00 15.2 3 Sudeste 17 Norte 0 -- -- 98
2020-07-08 20:00:00 15.4 4 Sur 9 Sur 0 -- -- 97
2020-07-08 19:00:00 16.3 2 Sudeste 8 Sur 0 -- -- 96
2020-07-08 18:00:00 17.1 4 Sur 8 Sudeste 0 -- -- 91
2020-07-08 17:00:00 17.6 3 Sur 9 Sur 0 -- -- 90
2020-07-08 16:00:00 18.2 5 Este 18 Nordeste 0 -- -- 88
2020-07-08 15:00:00 20.6 5 Nordeste 14 Nordeste 0 -- -- 78
2020-07-08 14:00:00 19.3 8 Nordeste 12 Nordeste 0 -- -- 82
2020-07-08 13:00:00 19.4 6 Este 10 Este 0 -- -- 80
2020-07-08 12:00:00 17.8 3 Este 9 Sur 0 -- -- 84
2020-07-08 11:00:00 16.5 4 Sudeste 9 Sur 0 -- -- 89
2020-07-08 10:00:00 15.3 3 Sudoeste 6 Noroeste 0 -- -- 97
2020-07-08 09:00:00 13.7 3 Nordeste 5 Nordeste 0 -- -- 100
2020-07-08 08:00:00 13.2 0 Calma 4 Sur 0 -- -- 100
2020-07-08 07:00:00 13.1 2 Sur 5 Sur 0.2 -- -- 100
2020-07-08 06:00:00 13.1 0 Calma 7 Nordeste 0 -- -- 100
2020-07-08 05:00:00 13.2 3 Norte 8 Norte 0 -- -- 100
2020-07-08 04:00:00 13.2 3 Norte 6 Norte 0 -- -- 99
2020-07-08 03:00:00 13.6 3 Nordeste 6 Oeste 0 -- -- 99
2020-07-08 02:00:00 13.8 4 Sudoeste 6 Este 0 -- -- 99
2020-07-08 01:00:00 14 3 Nordeste 7 Norte 0 -- -- 99
2020-07-08 00:00:00 14 3 Nordeste 7 Nordeste 0 -- -- 98
2020-07-07 23:00:00 14.6 3 Sudeste 5 Sur 0 -- -- 97
2020-07-07 22:00:00 14.8 0 Calma 5 Sudoeste 0 -- -- 95
2020-07-07 21:00:00 15.1 0 Calma 5 Sur 0 -- -- 94
2020-07-07 20:00:00 15.6 4 Sudoeste 9 Sur 0 -- -- 91
2020-07-07 19:00:00 18 6 Sur 10 Sur 0 -- -- 80
2020-07-07 18:00:00 19 6 Sur 11 Sur 0 -- -- 76
2020-07-07 17:00:00 19.9 5 Sudeste 12 Sudeste 0 -- -- 76
2020-07-07 16:00:00 20.2 5 Sudeste 10 Sudeste 0 -- -- 74
2020-07-07 15:00:00 18.3 5 Nordeste 11 Nordeste 0 -- -- 78
2020-07-07 14:00:00 17.9 5 Nordeste 12 Nordeste 0 -- -- 71
2020-07-07 13:00:00 17.7 4 Nordeste 9 Nordeste 0 -- -- 67
2020-07-07 12:00:00 16.6 3 Este 8 Nordeste 0 -- -- 89
2020-07-07 11:00:00 13.8 4 Nordeste 9 Sur 0 -- -- 93
2020-07-07 10:00:00 12.2 2 Nordeste 7 Nordeste 0 -- -- 100
2020-07-07 09:00:00 10.7 3 Sur 6 Nordeste 0 -- -- 100
2020-07-07 08:00:00 10.1 3 Nordeste 8 Nordeste 0 -- -- 100
2020-07-07 07:00:00 9.9 0 Calma 7 Nordeste 0 -- -- 100
2020-07-07 06:00:00 10.1 5 Nordeste 9 Nordeste 0.2 -- -- 100
2020-07-07 05:00:00 10.6 4 Nordeste 11 Nordeste 0 -- -- 100
2020-07-07 04:00:00 10.9 5 Nordeste 11 Este 0.2 -- -- 100
2020-07-07 03:00:00 11.1 5 Nordeste 10 Este 0.2 -- -- 100
2020-07-07 02:00:00 11.3 7 Nordeste 13 Nordeste 0.2 -- -- 100
2020-07-07 01:00:00 11.5 6 Nordeste 16 Nordeste 0.2 -- -- 100
2020-07-07 00:00:00 11.6 6 Nordeste 9 Nordeste 0 -- -- 100
2020-07-06 23:00:00 11.8 3 Nordeste 9 Nordeste 0.2 -- -- 100
2020-07-06 22:00:00 12.1 2 Este 9 Sudeste 0.2 -- -- 99
2020-07-06 21:00:00 12.6 2 Sudeste 6 Sur 0 -- -- 98
2020-07-06 20:00:00 13.5 4 Sur 7 Sudeste 0 -- -- 95
2020-07-06 19:00:00 14 4 Sur 8 Sudeste 0 -- -- 95
2020-07-06 18:00:00 14.3 3 Este 12 Nordeste 0 -- -- 94
2020-07-06 17:00:00 14.3 4 Nordeste 15 Nordeste 0 -- -- 93
2020-07-06 16:00:00 14.7 6 Nordeste 20 Nordeste 0 -- -- 93
2020-07-06 15:00:00 14.3 10 Nordeste 31 Nordeste 0 -- -- 97
2020-07-06 14:00:00 13.9 13 Norte 23 Nordeste 0 -- -- 95
2020-07-06 13:00:00 14.1 11 Nordeste 32 Nordeste 0 -- -- 98
2020-07-06 12:00:00 13.4 16 Nordeste 31 Nordeste 0.2 -- -- 97
2020-07-06 11:00:00 15.4 12 Norte 24 Nordeste 0 -- -- 93
2020-07-06 10:00:00 16.1 3 Sudeste 7 Este 0 -- -- 98
2020-07-06 09:00:00 14.1 2 Este 19 Nordeste 0 -- -- 100
2020-07-06 08:00:00 13.4 9 Nordeste 13 Nordeste 0 -- -- 100
2020-07-06 07:00:00 13.7 2 Nordeste 6 Nordeste 0.2 -- -- 99
2020-07-06 06:00:00 13.7 3 Sur 5 Sur 0 -- -- 99
2020-07-06 05:00:00 13.7 2 Sur 6 Sudoeste 0 -- -- 99
2020-07-06 04:00:00 13.5 0 Calma 5 Noroeste 0 -- -- 99
2020-07-06 03:00:00 13.7 2 Sudoeste 6 Sudoeste 0 -- -- 98
2020-07-06 02:00:00 14.1 4 Sudoeste 6 Sudoeste 0 -- -- 98
2020-07-06 01:00:00 14.6 0 Calma 5 Sur 0 -- -- 98
2020-07-06 00:00:00 15 2 Sudeste 6 Sur 0 -- -- 98
2020-07-05 23:00:00 15.2 2 Nordeste 5 Sur 0 -- -- 97
2020-07-05 22:00:00 16.2 2 Este 4 Sudeste 0 -- -- 90
2020-07-05 21:00:00 18.5 0 Calma 5 Sudeste 0 -- -- 80
2020-07-05 20:00:00 21.3 2 Sur 9 Sudeste 0 -- -- 72
2020-07-05 19:00:00 21.3 5 Sudeste 12 Sudeste 0 -- -- 72
2020-07-05 18:00:00 21.3 8 Sur 12 Sur 0 -- -- 70
2020-07-05 17:00:00 22.5 7 Sur 12 Sur 0 -- -- 70
2020-07-05 16:00:00 22.8 7 Sudeste 14 Sudeste 0 -- -- 67
2020-07-05 15:00:00 22.8 6 Sudeste 12 Sur 0 -- -- 71
2020-07-05 14:00:00 23.4 5 Sudeste 10 Sudeste 0 -- -- 64
2020-07-05 13:00:00 23 3 Este 9 Nordeste 0 -- -- 70
2020-07-05 12:00:00 21.4 5 Nordeste 10 Nordeste 0 -- -- 65
2020-07-05 11:00:00 21.7 3 Este 6 Este 0 -- -- 70
2020-07-05 10:00:00 20.6 2 Sudeste 5 Sur 0 -- -- 72
2020-07-05 09:00:00 18.9 2 Este 5 Sudoeste 0 -- -- 75
2020-07-05 08:00:00 17.4 3 Noroeste 5 Noroeste 0 -- -- 69
2020-07-05 07:00:00 15.9 0 Calma 5 Norte 0 -- -- 71
2020-07-05 06:00:00 16 3 Norte 6 Nordeste 0 -- -- 70
2020-07-05 05:00:00 16.1 3 Sur 6 Noroeste 0 -- -- 69
2020-07-05 04:00:00 15.7 5 Norte 7 Norte 0 -- -- 75
2020-07-05 03:00:00 15.9 0 Calma 5 Sudoeste 0 -- -- 74
2020-07-05 02:00:00 15.7 3 Sudoeste 5 Noroeste 0 -- -- 80
2020-07-05 01:00:00 16 4 Nordeste 6 Noroeste 0 -- -- 78
2020-07-05 00:00:00 15.7 0 Calma 8 Sudoeste 0 -- -- 82
2020-07-04 23:00:00 15.4 3 Norte 6 Sudoeste 0 -- -- 86
2020-07-04 22:00:00 15.7 3 Sudeste 6 Sur 0 -- -- 82
2020-07-04 21:00:00 18.1 4 Sur 8 Sudoeste 0 -- -- 77
2020-07-04 20:00:00 20.7 6 Sur 12 Sur 0 -- -- 68
2020-07-04 19:00:00 21.4 5 Sur 12 Sur 0 -- -- 67
2020-07-04 18:00:00 21.9 7 Sur 11 Sur 0 -- -- 69
2020-07-04 17:00:00 22.6 5 Sudeste 12 Sudeste 0 -- -- 69
2020-07-04 16:00:00 22.8 7 Sudeste 13 Este 0 -- -- 64
2020-07-04 15:00:00 22.3 4 Sur 10 Sur 0 -- -- 60
2020-07-04 14:00:00 21.3 4 Sudeste 10 Sudeste 0 -- -- 67
2020-07-04 13:00:00 19.9 4 Sudeste 12 Sudeste 0 -- -- 68
2020-07-04 12:00:00 18.7 5 Sur 10 Sur 0 -- -- 67
2020-07-04 11:00:00 18 4 Sudeste 7 Este 0 -- -- 75
2020-07-04 10:00:00 15.9 3 Sudeste 6 Nordeste 0 -- -- 80
2020-07-04 09:00:00 13.7 0 Calma 5 Este 0 -- -- 85
2020-07-04 08:00:00 11.5 3 Sudoeste 6 Sudoeste 0 -- -- 79
2020-07-04 07:00:00 10 2 Sur 6 Nordeste 0 -- -- 93
2020-07-04 06:00:00 10 4 Nordeste 7 Norte 0 -- -- 94
2020-07-04 05:00:00 10.2 5 Norte 6 Nordeste 0 -- -- 91
2020-07-04 04:00:00 10.5 6 Norte 9 Norte 0 -- -- 91
2020-07-04 03:00:00 10.5 4 Nordeste 8 Norte 0 -- -- 95
2020-07-04 02:00:00 10.5 4 Norte 8 Noroeste 0 -- -- 95
2020-07-04 01:00:00 10.6 0 Calma 6 Sudoeste 0 -- -- 96
2020-07-04 00:00:00 11.2 4 Norte 5 Norte 0 -- -- 99
2020-07-03 23:00:00 11.3 0 Calma 5 Nordeste 0 -- -- 99
2020-07-03 22:00:00 11.4 2 Sur 4 Sudeste 0 -- -- 98
2020-07-03 21:00:00 11.7 3 Sur 6 Sur 0 -- -- 97
2020-07-03 20:00:00 11.9 2 Sur 10 Nordeste 0 -- -- 97
2020-07-03 19:00:00 11.7 8 Nordeste 15 Nordeste 0 -- -- 96
2020-07-03 18:00:00 11.9 9 Nordeste 19 Nordeste 0 -- -- 95
2020-07-03 17:00:00 13.5 9 Nordeste 17 Norte 0 -- -- 86
2020-07-03 16:00:00 15.5 6 Nordeste 13 Nordeste 0 -- -- 79
2020-07-03 15:00:00 15.3 6 Nordeste 13 Este 0 -- -- 79
2020-07-03 14:00:00 14.3 8 Nordeste 17 Nordeste 0 -- -- 78
2020-07-03 13:00:00 14.7 9 Nordeste 15 Este 0 -- -- 76
2020-07-03 12:00:00 12.6 6 Nordeste 10 Nordeste 0 -- -- 77
2020-07-03 11:00:00 12.7 6 Nordeste 11 Nordeste 0 -- -- 80
2020-07-03 10:00:00 11.5 3 Nordeste 6 Nordeste 0 -- -- 83
2020-07-03 09:00:00 10.1 0 Calma 3 Sur 0 -- -- 93
2020-07-03 08:00:00 9.1 2 Noroeste 5 Oeste 0 -- -- 97
2020-07-03 07:00:00 8.6 2 Norte 6 Sudeste 0 -- -- 100
2020-07-03 06:00:00 8.7 4 Sudoeste 7 Sudoeste 0 -- -- 100
2020-07-03 05:00:00 8.8 3 Sudoeste 7 Sur 0 -- -- 99
2020-07-03 04:00:00 8.9 6 Sudoeste 6 Sudoeste 0.2 -- -- 99
2020-07-03 03:00:00 9.2 0 Calma 7 Sur 0 -- -- 99
2020-07-03 02:00:00 9.3 2 Sur 8 Oeste 0 -- -- 99
2020-07-03 01:00:00 9.5 11 Oeste 16 Oeste 0 -- -- 92
2020-07-03 00:00:00 9.2 9 Sudoeste 15 Sudoeste 0 -- -- 99
2020-07-02 23:00:00 9.5 5 Oeste 16 Oeste 0.2 -- -- 98
2020-07-02 22:00:00 9.8 10 Oeste 21 Oeste 0 -- -- 95
2020-07-02 21:00:00 9.6 15 Sudoeste 25 Oeste 0.2 -- -- 96
2020-07-02 20:00:00 10.3 4 Sur 15 Sudoeste 0 -- -- 98
2020-07-02 19:00:00 10.8 9 Oeste 24 Oeste 0 -- -- 93
2020-07-02 18:00:00 11.1 16 Oeste 23 Oeste 0 -- -- 92
2020-07-02 17:00:00 11.5 11 Sur 19 Sudoeste 0 -- -- 92
2020-07-02 16:00:00 12.1 3 Sudeste 15 Sudoeste 0 -- -- 95
2020-07-02 15:00:00 12.1 8 Sur 15 Sudoeste 0 -- -- 88
2020-07-02 14:00:00 11.6 7 Sur 13 Sur 0 -- -- 97
2020-07-02 13:00:00 11.2 2 Sudeste 12 Sur 0.2 -- -- 98
2020-07-02 12:00:00 11.1 6 Sur 9 Sur 1 -- -- 99
2020-07-02 11:00:00 11.4 4 Sudeste 8 Sudeste 0.8 -- -- 100
2020-07-02 10:00:00 11.1 3 Sudeste 6 Sudeste 0.4 -- -- 100
2020-07-02 09:00:00 10.8 3 Sur 8 Sudoeste 0.2 -- -- 100
2020-07-02 08:00:00 10.5 4 Sur 6 Sudoeste 0 -- -- 100
2020-07-02 07:00:00 10.8 4 Sur 5 Sur 0.4 -- -- 100
2020-07-02 06:00:00 10.9 4 Sur 6 Sur 0.4 -- -- 100
2020-07-02 05:00:00 11.3 3 Sur 5 Sur 0.6 -- -- 100
2020-07-02 04:00:00 11.3 3 Sur 5 Sur 0.6 -- -- 100
2020-07-02 03:00:00 11.3 2 Sudeste 5 Sur 0.4 -- -- 100
2020-07-02 02:00:00 11.4 2 Sur 8 Nordeste 0.4 -- -- 100
2020-07-02 01:00:00 11.7 0 Calma 5 Sudeste 0.4 -- -- 100
2020-07-02 00:00:00 11.9 3 Sur 6 Sur 0.2 -- -- 100
2020-07-01 23:00:00 12.1 3 Sur 5 Sur 0.4 -- -- 99
2020-07-01 22:00:00 12.5 0 Calma 6 Sur 0.4 -- -- 99
2020-07-01 21:00:00 12.8 3 Sudeste 5 Sur 0.4 -- -- 99
2020-07-01 20:00:00 13.4 4 Sur 7 Sur 0.4 -- -- 97
2020-07-01 19:00:00 14.4 4 Sur 8 Sur 0.2 -- -- 96
2020-07-01 18:00:00 15.1 3 Sudeste 7 Sudeste 0.4 -- -- 97
2020-07-01 17:00:00 14.8 4 Sur 10 Nordeste 0.8 -- -- 97
2020-07-01 16:00:00 14.9 5 Nordeste 12 Nordeste 0.4 -- -- 97
2020-07-01 15:00:00 15.2 2 Sur 7 Sur 0.4 -- -- 97
2020-07-01 14:00:00 15.2 4 Sur 8 Sur 0 -- -- 98
2020-07-01 13:00:00 15 4 Sur 6 Sur 0.2 -- -- 97
2020-07-01 12:00:00 15.5 3 Sur 6 Sudeste 0 -- -- 97
2020-07-01 11:00:00 15.8 2 Sur 5 Sudeste 0 -- -- 95
2020-07-01 10:00:00 15.5 3 Sudeste 6 Sur 0 -- -- 97
2020-07-01 09:00:00 14.8 4 Sudoeste 8 Sur 0 -- -- 98
2020-07-01 08:00:00 15.2 0 Calma 4 Nordeste 0 -- -- 95
2020-07-01 07:00:00 15.3 0 Calma 12 Oeste 0 -- -- 93
2020-07-01 06:00:00 15.2 10 Sudoeste 13 Sudoeste 0 -- -- 92
2020-07-01 05:00:00 15.4 11 Oeste 15 Oeste 0 -- -- 93
2020-07-01 04:00:00 14.9 2 Noroeste 6 Sudoeste 0 -- -- 96
2020-07-01 03:00:00 15 0 Calma 16 Oeste 0 -- -- 95
2020-07-01 02:00:00 16.2 12 Oeste 18 Oeste 0 -- -- 90
2020-07-01 01:00:00 15.7 3 Sudoeste 16 Sudoeste 0.2 -- -- 96
2020-07-01 00:00:00 16.5 8 Sudoeste 22 Norte 0 -- -- 92
2020-06-30 23:00:00 15.1 4 Norte 13 Nordeste 0 -- -- 95
2020-06-30 22:00:00 15.4 3 Sudoeste 7 Sur 0 -- -- 93
2020-06-30 21:00:00 16 3 Norte 7 Sur 0 -- -- 91
2020-06-30 20:00:00 16.6 2 Sudoeste 12 Sudoeste 0 -- -- 90
2020-06-30 19:00:00 17 7 Sudoeste 15 Sur 0 -- -- 90
2020-06-30 18:00:00 20 5 Sur 11 Sur 0 -- -- 76
2020-06-30 17:00:00 23 5 Sudeste 13 Sudeste 0 -- -- 70
2020-06-30 16:00:00 22.8 5 Sur 10 Sur 0 -- -- 67
2020-06-30 15:00:00 22 5 Sudeste 12 Sudeste 0 -- -- 70
2020-06-30 14:00:00 21 5 Sudeste 10 Sudeste 0 -- -- 74
2020-06-30 13:00:00 22.3 5 Sudeste 11 Sudeste 0 -- -- 59
2020-06-30 12:00:00 20.5 4 Sudeste 8 Sudeste 0 -- -- 73
2020-06-30 11:00:00 19.4 4 Sudeste 9 Sudeste 0 -- -- 77
2020-06-30 10:00:00 17.1 3 Sudeste 5 Sudeste 0 -- -- 83
2020-06-30 09:00:00 16.4 0 Calma 4 Sudoeste 0 -- -- 73
2020-06-30 08:00:00 14 4 Sudoeste 6 Sudoeste 0 -- -- 78
2020-06-30 07:00:00 12.4 5 Norte 6 Norte 0 -- -- 89
2020-06-30 06:00:00 12.7 3 Norte 8 Norte 0 -- -- 92
2020-06-30 05:00:00 12.6 4 Norte 7 Norte 0 -- -- 91
2020-06-30 04:00:00 12.7 5 Norte 8 Norte 0 -- -- 89
2020-06-30 03:00:00 13.3 4 Norte 8 Norte 0 -- -- 67
2020-06-30 02:00:00 13.6 4 Nordeste 9 Norte 0 -- -- 56
2020-06-30 01:00:00 13.3 3 Nordeste 12 Noroeste 0 -- -- 69
2020-06-30 00:00:00 14.4 10 Oeste 23 Oeste 0 -- -- 46
2020-06-29 23:00:00 12.5 5 Sudoeste 8 Sudoeste 0 -- -- 98
2020-06-29 22:00:00 13.1 3 Sur 7 Sur 0 -- -- 98
2020-06-29 21:00:00 13.9 2 Este 6 Sur 0 -- -- 97
2020-06-29 20:00:00 14.4 3 Sur 7 Sudeste 0 -- -- 94
2020-06-29 19:00:00 15.3 3 Sudeste 7 Sudeste 0 -- -- 93
2020-06-29 18:00:00 15.9 4 Sudeste 8 Sudeste 0 -- -- 90
2020-06-29 17:00:00 16.4 2 Este 8 Sur 0 -- -- 86
2020-06-29 16:00:00 16.5 4 Sur 9 Oeste 0 -- -- 87
2020-06-29 15:00:00 16.2 5 Sur 10 Sur 0 -- -- 89
2020-06-29 14:00:00 15.3 3 Nordeste 10 Nordeste 0 -- -- 92
2020-06-29 13:00:00 14.7 3 Nordeste 9 Este 0.2 -- -- 95
2020-06-29 12:00:00 14.1 3 Nordeste 8 Sudeste 0 -- -- 96
2020-06-29 11:00:00 14 3 Sur 6 Nordeste 0 -- -- 97
2020-06-29 10:00:00 12.8 3 Nordeste 7 Este 0 -- -- 100
2020-06-29 09:00:00 12.2 3 Sur 6 Sur 0.4 -- -- 100
2020-06-29 08:00:00 12 4 Sur 6 Sur 0.2 -- -- 100
2020-06-29 07:00:00 12 2 Sur 4 Sur 0.2 -- -- 100
2020-06-29 06:00:00 12.1 3 Sur 5 Sudoeste 0.2 -- -- 100
2020-06-29 05:00:00 12.1 4 Sur 6 Sudoeste 0.6 -- -- 99
2020-06-29 04:00:00 12.4 3 Sur 5 Sur 0.4 -- -- 99
2020-06-29 03:00:00 12.9 3 Sur 6 Sur 0.2 -- -- 99
2020-06-29 02:00:00 13.3 4 Sur 6 Sur 0.2 -- -- 99
2020-06-29 01:00:00 13.7 2 Sur 5 Sudeste 0.6 -- -- 99
2020-06-29 00:00:00 13.9 3 Sudeste 5 Sur 0.2 -- -- 99
2020-06-28 23:00:00 13.9 2 Nordeste 4 Sudeste 0 -- -- 99
2020-06-28 22:00:00 13.8 4 Sudoeste 8 Sur 0.2 -- -- 99
2020-06-28 21:00:00 14.2 0 Calma 6 Sudeste 0 -- -- 98
2020-06-28 20:00:00 14.6 2 Nordeste 6 Sudeste 0.2 -- -- 96
2020-06-28 19:00:00 15.2 3 Sur 8 Sur 0 -- -- 93
2020-06-28 18:00:00 15.9 5 Sudoeste 9 Sur 0 -- -- 89
2020-06-28 17:00:00 17.3 4 Sur 13 Norte 0 -- -- 83
2020-06-28 16:00:00 18.1 8 Nordeste 15 Este 0 -- -- 81
2020-06-28 15:00:00 20.9 3 Nordeste 12 Sudeste 0 -- -- 74
2020-06-28 14:00:00 19.5 5 Sudeste 13 Nordeste 0 -- -- 82
2020-06-28 13:00:00 20 6 Nordeste 13 Este 0 -- -- 74
2020-06-28 12:00:00 20.3 4 Este 9 Sudeste 0 -- -- 75
2020-06-28 11:00:00 18.6 5 Sudeste 12 Sudeste 0 -- -- 76
2020-06-28 10:00:00 16.7 4 Este 12 Este 0 -- -- 88
2020-06-28 09:00:00 15 4 Nordeste 18 Sudoeste 0 -- -- 93
2020-06-28 08:00:00 14.3 0 Calma 4 Nordeste 0 -- -- 93
2020-06-28 07:00:00 12.5 4 Norte 6 Norte 0 -- -- 100
2020-06-28 06:00:00 12.7 4 Oeste 5 Oeste 0 -- -- 100
2020-06-28 05:00:00 12.7 0 Calma 5 Este 0 -- -- 100
2020-06-28 04:00:00 12.7 0 Calma 6 Sur 0.2 -- -- 99
2020-06-28 03:00:00 12.8 2 Nordeste 6 Este 0 -- -- 99
2020-06-28 02:00:00 13 3 Nordeste 5 Nordeste 0.2 -- -- 99
2020-06-28 01:00:00 13.2 0 Calma 5 Sur 0.2 -- -- 99
2020-06-28 00:00:00 13.4 2 Sur 5 Sur 0.2 -- -- 99
2020-06-27 23:00:00 13.6 2 Sur 6 Sur 0 -- -- 98
2020-06-27 22:00:00 14.1 4 Sur 8 Sur 0 -- -- 97
2020-06-27 21:00:00 14.7 3 Sur 8 Sur 0 -- -- 97
2020-06-27 20:00:00 17.6 0 Calma 9 Sudeste 0 -- -- 86
2020-06-27 19:00:00 18.3 8 Nordeste 12 Nordeste 0 -- -- 81
2020-06-27 18:00:00 18.6 3 Nordeste 12 Este 0 -- -- 80
2020-06-27 17:00:00 20.7 5 Sudeste 14 Este 0 -- -- 73
2020-06-27 16:00:00 19.2 4 Nordeste 19 Nordeste 0 -- -- 75
2020-06-27 15:00:00 18.2 10 Nordeste 25 Nordeste 0 -- -- 81
2020-06-27 14:00:00 20.6 7 Nordeste 17 Este 0 -- -- 73
2020-06-27 13:00:00 20 4 Este 12 Nordeste 0 -- -- 77
2020-06-27 12:00:00 17.8 4 Oeste 10 Nordeste 0 -- -- 80
2020-06-27 11:00:00 20.1 4 Sudeste 9 Sudeste 0 -- -- 72
2020-06-27 10:00:00 18.2 3 Sudeste 7 Sudeste 0 -- -- 78
2020-06-27 09:00:00 16.2 3 Nordeste 7 Nordeste 0 -- -- 83
2020-06-27 08:00:00 14.7 3 Sur 9 Noroeste 0 -- -- 79
2020-06-27 07:00:00 13.5 5 Norte 9 Norte 0 -- -- 83
2020-06-27 06:00:00 13.7 4 Norte 10 Noroeste 0 -- -- 80
2020-06-27 05:00:00 13.4 5 Norte 11 Norte 0 -- -- 83
2020-06-27 04:00:00 13.8 0 Calma 7 Noroeste 0 -- -- 90
2020-06-27 03:00:00 14 3 Noroeste 8 Norte 0 -- -- 89
2020-06-27 02:00:00 14.3 2 Sudoeste 8 Noroeste 0 -- -- 89
2020-06-27 01:00:00 14.4 3 Oeste 8 Noroeste 0 -- -- 89
2020-06-27 00:00:00 14.6 3 Nordeste 9 Noroeste 0 -- -- 86
2020-06-26 23:00:00 14.7 5 Norte 9 Norte 0 -- -- 86
2020-06-26 22:00:00 14.7 5 Norte 6 Norte 0 -- -- 87
2020-06-26 21:00:00 16 3 Noroeste 6 Noroeste 0 -- -- 83
2020-06-26 20:00:00 15.8 4 Nordeste 8 Nordeste 0 -- -- 91
2020-06-26 19:00:00 16.9 3 Nordeste 7 Sur 0 -- -- 88
2020-06-26 18:00:00 16.5 3 Nordeste 8 Sudeste 0 -- -- 91
2020-06-26 17:00:00 15.9 3 Sur 10 Sur 0 -- -- 95
2020-06-26 16:00:00 15.1 4 Sur 13 Sudoeste 0 -- -- 97
2020-06-26 15:00:00 13.7 5 Sur 9 Sudoeste 0 -- -- 98
2020-06-26 14:00:00 13.1 3 Sudeste 6 Sur 0.2 -- -- 100
2020-06-26 13:00:00 13.4 3 Este 7 Sudeste 0 -- -- 99
2020-06-26 12:00:00 13 3 Sudeste 9 Sur 0 -- -- 99
2020-06-26 11:00:00 12.7 3 Sur 9 Sur 0.2 -- -- 100
2020-06-26 10:00:00 12.3 4 Sur 8 Sur 0.2 -- -- 100
2020-06-26 09:00:00 12.2 2 Sudeste 5 Sur 0 -- -- 100
2020-06-26 08:00:00 11.9 0 Calma 4 Sudeste 0.2 -- -- 100
2020-06-26 07:00:00 11.7 2 Sur 6 Nordeste 0.2 -- -- 100
2020-06-26 06:00:00 11.8 3 Este 8 Nordeste 0.2 -- -- 100
2020-06-26 05:00:00 12 3 Nordeste 8 Nordeste 0.2 -- -- 100
2020-06-26 04:00:00 12.2 0 Calma 5 Nordeste 0 -- -- 100
2020-06-26 03:00:00 12.4 0 Calma 6 Sur 0.2 -- -- 100
2020-06-26 02:00:00 12.4 3 Sur 5 Sur 0 -- -- 100
2020-06-26 01:00:00 12.7 0 Calma 5 Sur 0.2 -- -- 100
2020-06-26 00:00:00 12.9 4 Sudeste 9 Sur 0 -- -- 100
2020-06-25 23:00:00 13.1 7 Oeste 12 Sudoeste 0.2 -- -- 100
2020-06-25 22:00:00 13.6 3 Noroeste 16 Sur 1.2 -- -- 99
2020-06-25 21:00:00 13.9 6 Oeste 19 Sur 0.2 -- -- 99
2020-06-25 20:00:00 13.8 2 Oeste 13 Sudeste 1 -- -- 99
2020-06-25 19:00:00 13.8 5 Nordeste 32 Sudoeste 0 -- -- 99
2020-06-25 18:00:00 14.1 6 Sur 13 Sudoeste 0 -- -- 99
2020-06-25 17:00:00 14.6 4 Sur 10 Sur 0 -- -- 97
2020-06-25 16:00:00 16.1 3 Sur 9 Sudeste 0 -- -- 98
2020-06-25 15:00:00 15.9 6 Sur 13 Norte 0 -- -- 98
2020-06-25 14:00:00 15.3 2 Sur 31 Norte 2.4 -- -- 98
2020-06-25 13:00:00 15.6 6 Sur 13 Sur 0 -- -- 92
2020-06-25 12:00:00 17.6 3 Sudeste 12 Este 0 -- -- 87
2020-06-25 11:00:00 16.2 4 Nordeste 13 Sur 0 -- -- 91
2020-06-25 10:00:00 15.8 6 Oeste 40 Noroeste 0 -- -- 86
2020-06-25 09:00:00 17.3 9 Norte 22 Norte 0 -- -- 67
2020-06-25 08:00:00 16.1 4 Este 21 Nordeste 0 -- -- 86
2020-06-25 07:00:00 16.1 13 Nordeste 24 Nordeste 0 -- -- 73
2020-06-25 06:00:00 17.2 4 Noroeste 10 Sudoeste 0 -- -- 71
2020-06-25 05:00:00 15.4 4 Sudoeste 7 Sudoeste 0 -- -- 89
2020-06-25 04:00:00 15.9 5 Norte 25 Oeste 0.8 -- -- 88
2020-06-25 03:00:00 17.5 5 Sur 18 Sur 0 -- -- 80
2020-06-25 02:00:00 19.8 14 Nordeste 26 Nordeste 0 -- -- 63
2020-06-25 01:00:00 21.2 4 Oeste 14 Norte 0 -- -- 47
2020-06-25 00:00:00 20.4 4 Norte 17 Oeste 0 -- -- 57
2020-06-24 23:00:00 21.6 10 Oeste 21 Oeste 0 -- -- 52
2020-06-24 22:00:00 21.8 3 Norte 34 Sudoeste 0 -- -- 51
2020-06-24 21:00:00 21.8 24 Oeste 42 Oeste 0 -- -- 48
2020-06-24 20:00:00 21.9 19 Oeste 39 Oeste 0 -- -- 51
2020-06-24 19:00:00 21.7 10 Noroeste 25 Oeste 0 -- -- 77
2020-06-24 18:00:00 23.6 9 Nordeste 15 Nordeste 0 -- -- 67
2020-06-24 17:00:00 22.2 3 Nordeste 9 Nordeste 0 -- -- 72
2020-06-24 16:00:00 23.9 0 Calma 9 Norte 0 -- -- 75
2020-06-24 15:00:00 24.9 4 Este 11 Sudeste 0 -- -- 69
2020-06-24 14:00:00 25.7 4 Sur 14 Nordeste 0 -- -- 65
2020-06-24 13:00:00 26.5 8 Nordeste 14 Nordeste 0 -- -- 58
2020-06-24 12:00:00 25.3 9 Nordeste 14 Nordeste 0 -- -- 47
2020-06-24 11:00:00 26.4 4 Nordeste 6 Nordeste 0 -- -- 46
2020-06-24 10:00:00 25.6 3 Este 11 Norte 0 -- -- 48
2020-06-24 09:00:00 23.9 8 Nordeste 16 Nordeste 0 -- -- 45
2020-06-24 08:00:00 21.7 10 Nordeste 13 Nordeste 0 -- -- 45
2020-06-24 07:00:00 22.8 3 Nordeste 10 Norte 0 -- -- 37
2020-06-24 06:00:00 22.8 8 Norte 12 Noroeste 0 -- -- 39
2020-06-24 05:00:00 23.6 5 Norte 15 Oeste 0 -- -- 38
2020-06-24 04:00:00 23.2 14 Oeste 21 Oeste 0 -- -- 40
2020-06-24 03:00:00 21.9 5 Norte 18 Norte 0 -- -- 44
2020-06-24 02:00:00 22.6 7 Nordeste 16 Norte 0 -- -- 43
2020-06-24 01:00:00 22.9 6 Norte 11 Noroeste 0 -- -- 38
2020-06-24 00:00:00 23.5 6 Norte 10 Noroeste 0 -- -- 34
2020-06-23 23:00:00 23.8 6 Noroeste 11 Noroeste 0 -- -- 36
2020-06-23 22:00:00 23.9 6 Noroeste 9 Noroeste 0 -- -- 38
2020-06-23 21:00:00 25.3 3 Norte 5 Norte 0 -- -- 41
2020-06-23 20:00:00 27.1 4 Sur 8 Sur 0 -- -- 44
2020-06-23 19:00:00 27.4 5 Sur 9 Sudeste 0 -- -- 41
2020-06-23 18:00:00 27.7 4 Sur 12 Sudoeste 0 -- -- 46
2020-06-23 17:00:00 28.1 6 Sur 12 Sur 0 -- -- 39
2020-06-23 16:00:00 28.2 5 Sudeste 12 Sur 0 -- -- 51
2020-06-23 15:00:00 28.1 6 Sudeste 11 Sudeste 0 -- -- 41
2020-06-23 14:00:00 27.9 4 Sudeste 9 Sur 0 -- -- 50
2020-06-23 13:00:00 27.1 3 Nordeste 10 Nordeste 0 -- -- 57
2020-06-23 12:00:00 26.4 4 Nordeste 9 Nordeste 0 -- -- 40
2020-06-23 11:00:00 24.7 4 Nordeste 8 Este 0 -- -- 40
2020-06-23 10:00:00 22.7 6 Nordeste 10 Nordeste 0 -- -- 47
2020-06-23 09:00:00 20.9 4 Sudoeste 11 Nordeste 0 -- -- 53
2020-06-23 08:00:00 19.6 5 Norte 11 Norte 0 -- -- 53
2020-06-23 07:00:00 18.1 3 Norte 9 Norte 0 -- -- 58
2020-06-23 06:00:00 17.8 5 Norte 8 Norte 0 -- -- 63
2020-06-23 05:00:00 18.2 3 Norte 9 Noroeste 0 -- -- 63
2020-06-23 04:00:00 18.2 8 Norte 12 Norte 0 -- -- 69
2020-06-23 03:00:00 18.3 4 Norte 7 Noroeste 0 -- -- 71
2020-06-23 02:00:00 18.6 0 Calma 10 Norte 0 -- -- 71
2020-06-23 01:00:00 18.8 5 Norte 12 Noroeste 0 -- -- 72
2020-06-23 00:00:00 19 0 Calma 8 Nordeste 0 -- -- 74
2020-06-22 23:00:00 18.4 0 Calma 11 Nordeste 0 -- -- 84
2020-06-22 22:00:00 18.4 7 Norte 10 Norte 0 -- -- 86
2020-06-22 21:00:00 20.1 0 Calma 6 Sudoeste 0 -- -- 78
2020-06-22 20:00:00 22.2 0 Calma 8 Sudeste 0 -- -- 72
2020-06-22 19:00:00 22.9 4 Sudeste 9 Sudeste 0 -- -- 74
2020-06-22 18:00:00 23 5 Sur 12 Sur 0 -- -- 75
2020-06-22 17:00:00 23.5 6 Sur 11 Sudeste 0 -- -- 73
2020-06-22 16:00:00 23.1 5 Nordeste 18 Nordeste 0 -- -- 67
2020-06-22 15:00:00 22 7 Nordeste 14 Nordeste 0 -- -- 67
2020-06-22 14:00:00 21.5 8 Nordeste 15 Este 0 -- -- 67
2020-06-22 13:00:00 21.1 5 Nordeste 10 Nordeste 0 -- -- 59
2020-06-22 12:00:00 20 5 Nordeste 9 Nordeste 0 -- -- 65
2020-06-22 11:00:00 19 6 Nordeste 10 Nordeste 0 -- -- 66
2020-06-22 10:00:00 18 4 Sudeste 6 Sudeste 0 -- -- 78
2020-06-22 09:00:00 15.7 2 Sur 6 Sudoeste 0 -- -- 80
2020-06-22 08:00:00 13.7 5 Sudoeste 9 Norte 0 -- -- 77
2020-06-22 07:00:00 12.4 4 Norte 6 Norte 0 -- -- 87
2020-06-22 06:00:00 12.3 5 Norte 8 Norte 0 -- -- 90
2020-06-22 05:00:00 12.3 6 Norte 10 Norte 0 -- -- 94
2020-06-22 04:00:00 13 4 Norte 7 Norte 0 -- -- 95
2020-06-22 03:00:00 12.9 0 Calma 6 Sudoeste 0 -- -- 95
2020-06-22 02:00:00 12.7 3 Norte 6 Noroeste 0 -- -- 94
2020-06-22 01:00:00 12.7 6 Noroeste 9 Noroeste 0 -- -- 94
2020-06-22 00:00:00 13 0 Calma 3 Este 0 -- -- 92
2020-06-21 23:00:00 13.3 3 Sudoeste 6 Sudoeste 0 -- -- 91
2020-06-21 22:00:00 13.9 2 Sudoeste 6 Oeste 0 -- -- 89
2020-06-21 21:00:00 14.2 3 Sudoeste 6 Sur 0 -- -- 87
2020-06-21 20:00:00 14.6 2 Sudeste 13 Nordeste 0 -- -- 86
2020-06-21 19:00:00 15.3 3 Sur 8 Sur 0 -- -- 85
2020-06-21 18:00:00 15.6 3 Sudeste 10 Sur 0 -- -- 84
2020-06-21 17:00:00 15.5 7 Oeste 23 Nordeste 0 -- -- 84
2020-06-21 16:00:00 17.3 12 Nordeste 26 Nordeste 0 -- -- 79
2020-06-21 15:00:00 18.4 15 Nordeste 23 Nordeste 0 -- -- 76
2020-06-21 14:00:00 19.9 6 Nordeste 14 Este 0 -- -- 79
2020-06-21 13:00:00 19.4 6 Sudeste 14 Sudoeste 0 -- -- 76
2020-06-21 12:00:00 18.9 5 Sudeste 10 Sur 0 -- -- 80
2020-06-21 11:00:00 17.5 4 Sudeste 9 Sur 0 -- -- 80
2020-06-21 10:00:00 16.4 3 Este 9 Nordeste 0 -- -- 86
2020-06-21 09:00:00 14.9 3 Nordeste 10 Nordeste 0 -- -- 87
2020-06-21 08:00:00 14.3 3 Nordeste 6 Norte 0 -- -- 85
2020-06-21 07:00:00 13.3 2 Sudeste 9 Norte 0 -- -- 86
2020-06-21 06:00:00 13.6 3 Norte 9 Norte 0 -- -- 85
2020-06-21 05:00:00 13.4 4 Noroeste 8 Norte 0 -- -- 86
2020-06-21 04:00:00 13.8 0 Calma 5 Oeste 0 -- -- 85
2020-06-21 03:00:00 13.6 3 Sudoeste 5 Sudoeste 0 -- -- 85
2020-06-21 02:00:00 13.3 0 Calma 4 Sudoeste 0 -- -- 88
2020-06-21 01:00:00 13 4 Norte 7 Norte 0 -- -- 90
2020-06-21 00:00:00 13.1 3 Norte 6 Sudoeste 0 -- -- 93
2020-06-20 23:00:00 13.6 6 Sudoeste 7 Sur 0 -- -- 92
2020-06-20 22:00:00 14.1 0 Calma 4 Norte 0 -- -- 90
2020-06-20 21:00:00 15 0 Calma 6 Sur 0 -- -- 86
2020-06-20 20:00:00 16.2 5 Sur 10 Sur 0 -- -- 81
2020-06-20 19:00:00 18.1 6 Sur 12 Sudeste 0 -- -- 76
2020-06-20 18:00:00 18.2 2 Nordeste 13 Sur 0 -- -- 78
2020-06-20 17:00:00 18.7 5 Sudeste 11 Sur 0 -- -- 80
2020-06-20 16:00:00 17.4 5 Nordeste 13 Nordeste 0 -- -- 83
2020-06-20 15:00:00 17.7 6 Este 17 Nordeste 0 -- -- 82
2020-06-20 14:00:00 18.4 5 Nordeste 13 Nordeste 0 -- -- 80
2020-06-20 13:00:00 18.4 6 Este 14 Nordeste 0 -- -- 80
2020-06-20 12:00:00 17.3 6 Nordeste 14 Nordeste 0 -- -- 77
2020-06-20 11:00:00 17.1 3 Sudeste 8 Sudeste 0 -- -- 77
2020-06-20 10:00:00 15.6 3 Nordeste 9 Sudeste 0 -- -- 83
2020-06-20 09:00:00 14.1 0 Calma 6 Nordeste 0 -- -- 84
2020-06-20 08:00:00 12.2 3 Norte 8 Noroeste 0 -- -- 91
2020-06-20 07:00:00 11.1 2 Norte 10 Norte 0 -- -- 95
2020-06-20 06:00:00 11.1 7 Noroeste 10 Noroeste 0 -- -- 94
2020-06-20 05:00:00 11.4 3 Nordeste 7 Este 0 -- -- 94
2020-06-20 04:00:00 11.2 0 Calma 6 Noroeste 0 -- -- 96
2020-06-20 03:00:00 11.2 5 Noroeste 8 Noroeste 0 -- -- 95
2020-06-20 02:00:00 11.3 2 Oeste 4 Oeste 0 -- -- 96
2020-06-20 01:00:00 11.2 3 Sur 5 Noroeste 0 -- -- 96
2020-06-20 00:00:00 11.1 2 Nordeste 6 Norte 0 -- -- 96
2020-06-19 23:00:00 11.2 4 Norte 6 Norte 0 -- -- 99
2020-06-19 22:00:00 11.4 3 Sur 6 Sudeste 0 -- -- 98
2020-06-19 21:00:00 12 2 Sudeste 6 Sur 0 -- -- 96
2020-06-19 20:00:00 12.3 3 Sur 7 Sur 0 -- -- 95
2020-06-19 19:00:00 12.6 4 Sudeste 8 Sur 0 -- -- 95
2020-06-19 18:00:00 12.9 3 Nordeste 7 Sudeste 0 -- -- 94
2020-06-19 17:00:00 12.1 3 Sur 8 Sur 0 -- -- 95
2020-06-19 16:00:00 12.7 2 Sudeste 8 Sudeste 0 -- -- 93
2020-06-19 15:00:00 11.9 4 Nordeste 9 Nordeste 0 -- -- 94
2020-06-19 14:00:00 13 3 Sudeste 10 Este 0 -- -- 89
2020-06-19 13:00:00 12.4 4 Nordeste 8 Nordeste 0 -- -- 88
2020-06-19 12:00:00 11.3 3 Sur 6 Sudeste 0 -- -- 94
2020-06-19 11:00:00 10.4 3 Sudeste 9 Sudeste 0 -- -- 97
2020-06-19 10:00:00 10.1 2 Sur 8 Nordeste 0 -- -- 98
2020-06-19 09:00:00 10.1 4 Este 8 Nordeste 0 -- -- 97
2020-06-19 08:00:00 9.6 3 Nordeste 5 Oeste 0 -- -- 98
2020-06-19 07:00:00 9.2 4 Sudoeste 6 Sur 0 -- -- 95
2020-06-19 06:00:00 9.2 3 Sudoeste 5 Sur 0 -- -- 95
2020-06-19 05:00:00 9.2 0 Calma 4 Nordeste 0 -- -- 96
2020-06-19 04:00:00 9.5 0 Calma 3 Sur 0 -- -- 94
2020-06-19 03:00:00 9.8 0 Calma 4 Norte 0 -- -- 94
2020-06-19 02:00:00 9.8 0 Calma 8 Sudoeste 0 -- -- 95
2020-06-19 01:00:00 9.4 3 Noroeste 4 Nordeste 0 -- -- 98
2020-06-19 00:00:00 9.7 0 Calma 5 Oeste 0 -- -- 99
2020-06-18 23:00:00 9.7 3 Sudoeste 6 Sur 0 -- -- 99
2020-06-18 22:00:00 9.8 0 Calma 6 Sur 0 -- -- 99
2020-06-18 21:00:00 10.1 3 Sudeste 8 Sur 0.2 -- -- 99
2020-06-18 20:00:00 10.3 3 Este 6 Este 0 -- -- 98
2020-06-18 19:00:00 10.4 0 Calma 12 Nordeste 0 -- -- 98
2020-06-18 18:00:00 10.3 8 Norte 14 Nordeste 0 -- -- 98
2020-06-18 17:00:00 10.9 11 Nordeste 20 Nordeste 0 -- -- 93
2020-06-18 16:00:00 12.1 5 Sur 15 Este 0 -- -- 89
2020-06-18 15:00:00 11.8 5 Nordeste 17 Nordeste 0 -- -- 90
2020-06-18 14:00:00 12 5 Norte 18 Nordeste 0 -- -- 90
2020-06-18 13:00:00 12.3 5 Sudeste 11 Sur 0 -- -- 87
2020-06-18 12:00:00 12.8 5 Sudeste 11 Sudeste 0 -- -- 89
2020-06-18 11:00:00 11 2 Este 9 Sur 0 -- -- 94
2020-06-18 10:00:00 9.5 6 Sur 9 Sur 0 -- -- 95
2020-06-18 09:00:00 9.1 3 Sudeste 5 Sudeste 0 -- -- 97
2020-06-18 08:00:00 8.3 4 Nordeste 6 Norte 0 -- -- 96
2020-06-18 07:00:00 8.2 4 Norte 14 Oeste 0 -- -- 95
2020-06-18 06:00:00 8 3 Noroeste 14 Sudoeste 0 -- -- 98
2020-06-18 05:00:00 8 3 Norte 12 Oeste 0 -- -- 98
2020-06-18 04:00:00 8.2 0 Calma 6 Sur 0.4 -- -- 100
2020-06-18 03:00:00 8.4 0 Calma 5 Nordeste 0 -- -- 100
2020-06-18 02:00:00 8.4 2 Este 5 Sur 0 -- -- 100
2020-06-18 01:00:00 8.4 0 Calma 8 Este 0.2 -- -- 100
2020-06-18 00:00:00 8.7 4 Sur 6 Sur 0.6 -- -- 99
2020-06-17 23:00:00 8.5 4 Sur 10 Sur 0 -- -- 99
2020-06-17 22:00:00 8.7 4 Sur 7 Sudoeste 0.6 -- -- 99
2020-06-17 21:00:00 9 3 Sur 12 Nordeste 2.6 -- -- 99
2020-06-17 20:00:00 9.3 4 Este 21 Nordeste 1.2 -- -- 99
2020-06-17 19:00:00 10.2 6 Nordeste 15 Nordeste 0.4 -- -- 96
2020-06-17 18:00:00 12.4 3 Nordeste 11 Nordeste 0 -- -- 88
2020-06-17 17:00:00 13.8 5 Sudeste 21 Oeste 0 -- -- 83
2020-06-17 16:00:00 12.5 13 Oeste 32 Oeste 0 -- -- 76
2020-06-17 15:00:00 13 13 Oeste 28 Sudoeste 0.2 -- -- 76
2020-06-17 14:00:00 14.1 4 Nordeste 21 Sudoeste 0 -- -- 77
2020-06-17 13:00:00 12.7 12 Sudoeste 26 Sudoeste 0.2 -- -- 79
2020-06-17 12:00:00 11.7 14 Oeste 25 Sudoeste 0 -- -- 76
2020-06-17 11:00:00 10.7 15 Oeste 25 Oeste 0 -- -- 81
2020-06-17 10:00:00 10.1 12 Oeste 22 Oeste 0 -- -- 81
2020-06-17 09:00:00 9 14 Oeste 22 Sudoeste 0.2 -- -- 87
2020-06-17 08:00:00 9.3 12 Oeste 24 Sudoeste 0 -- -- 78
2020-06-17 07:00:00 9 12 Oeste 21 Oeste 0 -- -- 82
2020-06-17 06:00:00 8.9 16 Oeste 26 Oeste 0 -- -- 82
2020-06-17 05:00:00 8.7 10 Sudoeste 22 Oeste 0 -- -- 88
2020-06-17 04:00:00 8.8 13 Oeste 24 Oeste 0 -- -- 89
2020-06-17 03:00:00 9 13 Oeste 22 Noroeste 0 -- -- 89
2020-06-17 02:00:00 9 15 Sudoeste 29 Oeste 0.8 -- -- 86
2020-06-17 01:00:00 9.1 14 Oeste 35 Sudoeste 0.2 -- -- 91
2020-06-17 00:00:00 9.3 21 Oeste 35 Sudoeste 0.2 -- -- 90
2020-06-16 23:00:00 9.4 14 Oeste 33 Oeste 0.2 -- -- 92
2020-06-16 22:00:00 9.8 17 Oeste 40 Sudoeste 0 -- -- 89
2020-06-16 21:00:00 10.1 18 Oeste 37 Oeste 0 -- -- 89
2020-06-16 20:00:00 10.4 17 Oeste 37 Oeste 3.4 -- -- 91
2020-06-16 19:00:00 11.2 13 Oeste 33 Oeste 0 -- -- 87
2020-06-16 18:00:00 11.2 13 Oeste 26 Oeste 0 -- -- 87
2020-06-16 17:00:00 13 15 Oeste 31 Oeste 0 -- -- 78
2020-06-16 16:00:00 10.5 13 Oeste 30 Oeste 0.2 -- -- 91
2020-06-16 15:00:00 10.5 17 Oeste 27 Oeste 1.8 -- -- 93
2020-06-16 14:00:00 11.2 8 Nordeste 16 Este 0 -- -- 97
2020-06-16 13:00:00 12 3 Sudeste 12 Nordeste 0 -- -- 96
2020-06-16 12:00:00 11.8 4 Nordeste 8 Sudeste 0 -- -- 95
2020-06-16 11:00:00 10.9 4 Sudeste 8 Nordeste 0.4 -- -- 99
2020-06-16 10:00:00 10.5 3 Sur 13 Sudeste 0.2 -- -- 96
2020-06-16 09:00:00 9.7 4 Sudoeste 8 Noroeste 0 -- -- 95
2020-06-16 08:00:00 9.5 6 Norte 8 Norte 0 -- -- 94
2020-06-16 07:00:00 9.4 4 Noroeste 9 Norte 0 -- -- 93
2020-06-16 06:00:00 9.3 5 Norte 9 Norte 0 -- -- 97
2020-06-16 05:00:00 9 4 Nordeste 14 Oeste 0 -- -- 97
2020-06-16 04:00:00 9.1 6 Oeste 14 Oeste 0 -- -- 99
2020-06-16 03:00:00 9.6 4 Sudeste 8 Sudoeste 0.8 -- -- 100
2020-06-16 02:00:00 9.8 3 Sudeste 6 Sudeste 0.2 -- -- 100
2020-06-16 01:00:00 9.8 4 Sur 6 Sudeste 0 -- -- 100
2020-06-16 00:00:00 9.6 0 Calma 7 Nordeste 0.2 -- -- 100
2020-06-15 23:00:00 9.8 3 Nordeste 6 Nordeste 1.2 -- -- 99
2020-06-15 22:00:00 10.1 0 Calma 6 Sur 0.6 -- -- 99
2020-06-15 21:00:00 10.1 3 Sudoeste 7 Sudoeste 0.2 -- -- 99
2020-06-15 20:00:00 10.3 4 Sur 6 Sudoeste 0.8 -- -- 98
2020-06-15 19:00:00 10.8 3 Nordeste 15 Nordeste 0.6 -- -- 98
2020-06-15 18:00:00 10.7 10 Norte 15 Norte 0.4 -- -- 96
2020-06-15 17:00:00 11.5 4 Nordeste 9 Nordeste 1.6 -- -- 94
2020-06-15 16:00:00 12.6 3 Nordeste 19 Nordeste 0 -- -- 87
2020-06-15 15:00:00 14.2 9 Nordeste 19 Nordeste 0 -- -- 79
2020-06-15 14:00:00 13.5 7 Nordeste 20 Nordeste 0 -- -- 84
2020-06-15 13:00:00 14.1 9 Nordeste 19 Este 0 -- -- 82
2020-06-15 12:00:00 14.2 9 Sur 14 Sur 0 -- -- 81
2020-06-15 11:00:00 13.5 5 Sur 9 Sur 0 -- -- 87
2020-06-15 10:00:00 10.8 4 Nordeste 8 Nordeste 0 -- -- 93
2020-06-15 09:00:00 10.7 2 Este 15 Sudoeste 0 -- -- 93
2020-06-15 08:00:00 10 3 Sudoeste 8 Oeste 0 -- -- 89
2020-06-15 07:00:00 9.8 0 Calma 7 Oeste 0 -- -- 93
2020-06-15 06:00:00 9.9 4 Oeste 10 Oeste 0 -- -- 91
2020-06-15 05:00:00 9.7 2 Sur 5 Norte 0 -- -- 98
2020-06-15 04:00:00 9.7 0 Calma 5 Sudoeste 0 -- -- 99
2020-06-15 03:00:00 9.6 3 Oeste 4 Nordeste 0 -- -- 100
2020-06-15 02:00:00 9.6 0 Calma 6 Sur 0 -- -- 100
2020-06-15 01:00:00 9.4 2 Sur 6 Nordeste 0 -- -- 100
2020-06-15 00:00:00 9.5 3 Nordeste 8 Nordeste 0 -- -- 99